sensor_id;sensor_type;location;lat;lon;timestamp;P1;durP1;ratioP1;P2;durP2;ratioP2
5171;SDS011;2605;49.770;9.868;2022-07-23T00:00:05;10.00;;;9.00;;
5171;SDS011;2605;49.770;9.868;2022-07-23T00:02:31;9.67;;;8.70;;
5171;SDS011;2605;49.770;9.868;2022-07-23T00:04:57;9.13;;;8.43;;
5171;SDS011;2605;49.770;9.868;2022-07-23T00:07:22;8.43;;;7.83;;
5171;SDS011;2605;49.770;9.868;2022-07-23T00:09:47;10.87;;;8.07;;
5171;SDS011;2605;49.770;9.868;2022-07-23T00:12:13;10.33;;;9.17;;
5171;SDS011;2605;49.770;9.868;2022-07-23T00:14:38;8.67;;;7.97;;
5171;SDS011;2605;49.770;9.868;2022-07-23T00:17:04;8.73;;;8.10;;
5171;SDS011;2605;49.770;9.868;2022-07-23T00:19:29;11.17;;;9.00;;
5171;SDS011;2605;49.770;9.868;2022-07-23T00:21:55;9.60;;;8.80;;
5171;SDS011;2605;49.770;9.868;2022-07-23T00:24:20;9.37;;;8.67;;
5171;SDS011;2605;49.770;9.868;2022-07-23T00:26:46;9.80;;;8.90;;
5171;SDS011;2605;49.770;9.868;2022-07-23T00:29:11;8.97;;;8.37;;
5171;SDS011;2605;49.770;9.868;2022-07-23T00:31:37;9.20;;;8.40;;
5171;SDS011;2605;49.770;9.868;2022-07-23T00:34:03;9.17;;;8.20;;
5171;SDS011;2605;49.770;9.868;2022-07-23T00:36:28;8.53;;;7.83;;
5171;SDS011;2605;49.770;9.868;2022-07-23T00:38:56;9.40;;;8.07;;
5171;SDS011;2605;49.770;9.868;2022-07-23T00:41:22;8.40;;;7.70;;
5171;SDS011;2605;49.770;9.868;2022-07-23T00:43:47;8.53;;;7.73;;
5171;SDS011;2605;49.770;9.868;2022-07-23T00:46:13;8.37;;;7.70;;
5171;SDS011;2605;49.770;9.868;2022-07-23T00:48:43;8.13;;;7.50;;
5171;SDS011;2605;49.770;9.868;2022-07-23T00:51:09;9.30;;;8.60;;
5171;SDS011;2605;49.770;9.868;2022-07-23T00:53:34;9.37;;;8.43;;
5171;SDS011;2605;49.770;9.868;2022-07-23T00:56:00;10.53;;;8.77;;
5171;SDS011;2605;49.770;9.868;2022-07-23T00:58:25;8.07;;;7.50;;
5171;SDS011;2605;49.770;9.868;2022-07-23T01:00:52;8.77;;;8.07;;
5171;SDS011;2605;49.770;9.868;2022-07-23T01:03:17;9.17;;;8.43;;
5171;SDS011;2605;49.770;9.868;2022-07-23T01:05:43;8.73;;;7.73;;
5171;SDS011;2605;49.770;9.868;2022-07-23T01:08:09;10.43;;;7.50;;
5171;SDS011;2605;49.770;9.868;2022-07-23T01:10:35;8.87;;;7.13;;
5171;SDS011;2605;49.770;9.868;2022-07-23T01:13:05;10.90;;;7.40;;
5171;SDS011;2605;49.770;9.868;2022-07-23T01:15:33;8.67;;;7.97;;
5171;SDS011;2605;49.770;9.868;2022-07-23T01:18:01;9.43;;;8.53;;
5171;SDS011;2605;49.770;9.868;2022-07-23T01:20:27;9.37;;;8.20;;
5171;SDS011;2605;49.770;9.868;2022-07-23T01:22:53;9.47;;;8.50;;
5171;SDS011;2605;49.770;9.868;2022-07-23T01:25:20;9.27;;;8.50;;
5171;SDS011;2605;49.770;9.868;2022-07-23T01:27:46;10.03;;;8.67;;
5171;SDS011;2605;49.770;9.868;2022-07-23T01:30:12;9.07;;;8.37;;
5171;SDS011;2605;49.770;9.868;2022-07-23T01:32:38;9.63;;;8.77;;
5171;SDS011;2605;49.770;9.868;2022-07-23T01:35:04;7.57;;;6.93;;
5171;SDS011;2605;49.770;9.868;2022-07-23T01:37:30;9.00;;;8.13;;
5171;SDS011;2605;49.770;9.868;2022-07-23T01:39:55;9.03;;;8.17;;
5171;SDS011;2605;49.770;9.868;2022-07-23T01:42:21;10.23;;;8.50;;
5171;SDS011;2605;49.770;9.868;2022-07-23T01:44:47;9.30;;;8.50;;
5171;SDS011;2605;49.770;9.868;2022-07-23T01:47:12;8.47;;;7.67;;
5171;SDS011;2605;49.770;9.868;2022-07-23T01:49:38;10.40;;;8.40;;
5171;SDS011;2605;49.770;9.868;2022-07-23T01:52:03;8.67;;;7.73;;
5171;SDS011;2605;49.770;9.868;2022-07-23T01:54:32;8.40;;;7.50;;
5171;SDS011;2605;49.770;9.868;2022-07-23T01:56:59;10.00;;;8.00;;
5171;SDS011;2605;49.770;9.868;2022-07-23T01:59:26;8.03;;;7.33;;
5171;SDS011;2605;49.770;9.868;2022-07-23T02:01:52;9.33;;;8.37;;
5171;SDS011;2605;49.770;9.868;2022-07-23T02:04:20;8.97;;;8.27;;
5171;SDS011;2605;49.770;9.868;2022-07-23T02:06:47;8.90;;;8.10;;
5171;SDS011;2605;49.770;9.868;2022-07-23T02:09:13;9.07;;;8.13;;
5171;SDS011;2605;49.770;9.868;2022-07-23T02:11:38;9.00;;;8.20;;
5171;SDS011;2605;49.770;9.868;2022-07-23T02:14:04;8.07;;;7.47;;
5171;SDS011;2605;49.770;9.868;2022-07-23T02:16:29;9.30;;;8.60;;
5171;SDS011;2605;49.770;9.868;2022-07-23T02:18:55;9.43;;;8.47;;
5171;SDS011;2605;49.770;9.868;2022-07-23T02:21:20;8.77;;;8.00;;
5171;SDS011;2605;49.770;9.868;2022-07-23T02:23:46;8.80;;;8.10;;
5171;SDS011;2605;49.770;9.868;2022-07-23T02:26:11;11.77;;;9.07;;
5171;SDS011;2605;49.770;9.868;2022-07-23T02:28:37;13.93;;;8.40;;
5171;SDS011;2605;49.770;9.868;2022-07-23T02:31:02;11.13;;;8.60;;
5171;SDS011;2605;49.770;9.868;2022-07-23T02:33:28;9.77;;;8.97;;
5171;SDS011;2605;49.770;9.868;2022-07-23T02:35:54;10.07;;;9.20;;
5171;SDS011;2605;49.770;9.868;2022-07-23T02:38:19;8.90;;;8.10;;
5171;SDS011;2605;49.770;9.868;2022-07-23T02:40:45;10.33;;;8.03;;
5171;SDS011;2605;49.770;9.868;2022-07-23T02:43:10;9.03;;;8.10;;
5171;SDS011;2605;49.770;9.868;2022-07-23T02:45:36;9.10;;;8.40;;
5171;SDS011;2605;49.770;9.868;2022-07-23T02:48:01;8.60;;;8.00;;
5171;SDS011;2605;49.770;9.868;2022-07-23T02:50:27;9.50;;;7.97;;
5171;SDS011;2605;49.770;9.868;2022-07-23T02:52:53;8.10;;;7.40;;
5171;SDS011;2605;49.770;9.868;2022-07-23T02:55:18;9.50;;;8.80;;
5171;SDS011;2605;49.770;9.868;2022-07-23T02:57:44;8.80;;;7.97;;
5171;SDS011;2605;49.770;9.868;2022-07-23T03:00:10;8.87;;;8.07;;
5171;SDS011;2605;49.770;9.868;2022-07-23T03:02:36;10.83;;;9.20;;
5171;SDS011;2605;49.770;9.868;2022-07-23T03:05:01;9.30;;;8.50;;
5171;SDS011;2605;49.770;9.868;2022-07-23T03:07:27;11.80;;;9.90;;
5171;SDS011;2605;49.770;9.868;2022-07-23T03:09:52;8.57;;;7.90;;
5171;SDS011;2605;49.770;9.868;2022-07-23T03:12:18;10.10;;;9.30;;
5171;SDS011;2605;49.770;9.868;2022-07-23T03:14:43;10.33;;;9.33;;
5171;SDS011;2605;49.770;9.868;2022-07-23T03:17:09;10.53;;;9.53;;
5171;SDS011;2605;49.770;9.868;2022-07-23T03:19:35;10.20;;;8.80;;
5171;SDS011;2605;49.770;9.868;2022-07-23T03:22:02;9.93;;;9.13;;
5171;SDS011;2605;49.770;9.868;2022-07-23T03:24:28;9.47;;;8.67;;
5171;SDS011;2605;49.770;9.868;2022-07-23T03:27:13;9.53;;;8.73;;
5171;SDS011;2605;49.770;9.868;2022-07-23T03:29:39;9.33;;;8.30;;
5171;SDS011;2605;49.770;9.868;2022-07-23T03:32:05;8.50;;;7.80;;
5171;SDS011;2605;49.770;9.868;2022-07-23T03:34:30;9.17;;;8.37;;
5171;SDS011;2605;49.770;9.868;2022-07-23T03:36:56;10.43;;;8.23;;
5171;SDS011;2605;49.770;9.868;2022-07-23T03:39:21;9.37;;;8.57;;
5171;SDS011;2605;49.770;9.868;2022-07-23T03:41:47;9.23;;;8.43;;
5171;SDS011;2605;49.770;9.868;2022-07-23T03:44:12;9.47;;;8.73;;
5171;SDS011;2605;49.770;9.868;2022-07-23T03:46:38;9.57;;;8.77;;
5171;SDS011;2605;49.770;9.868;2022-07-23T03:49:03;11.20;;;10.40;;
5171;SDS011;2605;49.770;9.868;2022-07-23T03:51:29;11.60;;;9.83;;
5171;SDS011;2605;49.770;9.868;2022-07-23T03:53:54;10.13;;;9.30;;
5171;SDS011;2605;49.770;9.868;2022-07-23T03:56:20;10.50;;;9.67;;
5171;SDS011;2605;49.770;9.868;2022-07-23T03:58:46;10.03;;;8.97;;
5171;SDS011;2605;49.770;9.868;2022-07-23T04:01:12;13.50;;;10.17;;
5171;SDS011;2605;49.770;9.868;2022-07-23T04:03:38;9.90;;;8.90;;
5171;SDS011;2605;49.770;9.868;2022-07-23T04:06:04;10.77;;;9.77;;
5171;SDS011;2605;49.770;9.868;2022-07-23T04:08:30;9.73;;;8.83;;
5171;SDS011;2605;49.770;9.868;2022-07-23T04:10:55;10.27;;;8.90;;
5171;SDS011;2605;49.770;9.868;2022-07-23T04:13:21;9.57;;;8.87;;
5171;SDS011;2605;49.770;9.868;2022-07-23T04:15:46;8.73;;;7.93;;
5171;SDS011;2605;49.770;9.868;2022-07-23T04:18:12;11.00;;;10.23;;
5171;SDS011;2605;49.770;9.868;2022-07-23T04:20:38;11.90;;;10.90;;
5171;SDS011;2605;49.770;9.868;2022-07-23T04:23:03;12.37;;;11.17;;
5171;SDS011;2605;49.770;9.868;2022-07-23T04:25:29;13.10;;;11.20;;
5171;SDS011;2605;49.770;9.868;2022-07-23T04:27:54;12.47;;;11.20;;
5171;SDS011;2605;49.770;9.868;2022-07-23T04:30:20;12.83;;;11.73;;
5171;SDS011;2605;49.770;9.868;2022-07-23T04:32:45;12.83;;;11.63;;
5171;SDS011;2605;49.770;9.868;2022-07-23T04:35:11;11.77;;;10.67;;
5171;SDS011;2605;49.770;9.868;2022-07-23T04:37:36;11.50;;;10.63;;
5171;SDS011;2605;49.770;9.868;2022-07-23T04:40:02;10.97;;;9.90;;
5171;SDS011;2605;49.770;9.868;2022-07-23T04:42:28;11.70;;;10.70;;
5171;SDS011;2605;49.770;9.868;2022-07-23T04:44:53;11.93;;;10.97;;
5171;SDS011;2605;49.770;9.868;2022-07-23T04:47:19;12.00;;;11.00;;
5171;SDS011;2605;49.770;9.868;2022-07-23T04:49:44;11.93;;;10.70;;
5171;SDS011;2605;49.770;9.868;2022-07-23T04:52:10;11.60;;;10.70;;
5171;SDS011;2605;49.770;9.868;2022-07-23T04:54:35;11.80;;;10.80;;
5171;SDS011;2605;49.770;9.868;2022-07-23T04:57:01;12.40;;;11.30;;
5171;SDS011;2605;49.770;9.868;2022-07-23T04:59:26;12.33;;;11.20;;
5171;SDS011;2605;49.770;9.868;2022-07-23T05:01:52;12.47;;;11.20;;
5171;SDS011;2605;49.770;9.868;2022-07-23T05:04:17;10.50;;;9.70;;
5171;SDS011;2605;49.770;9.868;2022-07-23T05:06:43;12.47;;;11.23;;
5171;SDS011;2605;49.770;9.868;2022-07-23T05:09:08;11.57;;;10.77;;
5171;SDS011;2605;49.770;9.868;2022-07-23T05:11:34;12.97;;;11.57;;
5171;SDS011;2605;49.770;9.868;2022-07-23T05:13:59;12.87;;;11.53;;
5171;SDS011;2605;49.770;9.868;2022-07-23T05:16:25;13.27;;;12.17;;
5171;SDS011;2605;49.770;9.868;2022-07-23T05:18:50;13.10;;;11.93;;
5171;SDS011;2605;49.770;9.868;2022-07-23T05:21:16;11.87;;;10.97;;
5171;SDS011;2605;49.770;9.868;2022-07-23T05:23:41;14.50;;;11.40;;
5171;SDS011;2605;49.770;9.868;2022-07-23T05:26:07;13.77;;;12.43;;
5171;SDS011;2605;49.770;9.868;2022-07-23T05:28:32;14.50;;;13.03;;
5171;SDS011;2605;49.770;9.868;2022-07-23T05:30:58;12.30;;;11.30;;
5171;SDS011;2605;49.770;9.868;2022-07-23T05:33:23;12.63;;;11.47;;
5171;SDS011;2605;49.770;9.868;2022-07-23T05:35:49;13.07;;;11.97;;
5171;SDS011;2605;49.770;9.868;2022-07-23T05:38:15;12.17;;;11.27;;
5171;SDS011;2605;49.770;9.868;2022-07-23T05:40:40;13.47;;;12.27;;
5171;SDS011;2605;49.770;9.868;2022-07-23T05:43:06;12.63;;;11.63;;
5171;SDS011;2605;49.770;9.868;2022-07-23T05:45:31;12.77;;;11.70;;
5171;SDS011;2605;49.770;9.868;2022-07-23T05:47:57;13.30;;;12.10;;
5171;SDS011;2605;49.770;9.868;2022-07-23T05:50:22;15.27;;;12.83;;
5171;SDS011;2605;49.770;9.868;2022-07-23T05:52:47;14.53;;;13.13;;
5171;SDS011;2605;49.770;9.868;2022-07-23T05:55:13;13.90;;;12.80;;
5171;SDS011;2605;49.770;9.868;2022-07-23T05:57:39;15.63;;;14.40;;
5171;SDS011;2605;49.770;9.868;2022-07-23T06:00:06;15.33;;;13.93;;
5171;SDS011;2605;49.770;9.868;2022-07-23T06:02:33;20.10;;;15.40;;
5171;SDS011;2605;49.770;9.868;2022-07-23T06:04:59;18.93;;;17.20;;
5171;SDS011;2605;49.770;9.868;2022-07-23T06:07:24;17.20;;;15.80;;
5171;SDS011;2605;49.770;9.868;2022-07-23T06:09:50;19.33;;;16.80;;
5171;SDS011;2605;49.770;9.868;2022-07-23T06:12:16;17.70;;;16.30;;
5171;SDS011;2605;49.770;9.868;2022-07-23T06:14:42;16.90;;;15.40;;
5171;SDS011;2605;49.770;9.868;2022-07-23T06:17:07;17.53;;;16.03;;
5171;SDS011;2605;49.770;9.868;2022-07-23T06:19:33;15.27;;;13.67;;
5171;SDS011;2605;49.770;9.868;2022-07-23T06:21:58;17.50;;;15.97;;
5171;SDS011;2605;49.770;9.868;2022-07-23T06:24:24;17.57;;;15.97;;
5171;SDS011;2605;49.770;9.868;2022-07-23T06:26:49;15.60;;;14.37;;
5171;SDS011;2605;49.770;9.868;2022-07-23T06:29:15;15.07;;;13.80;;
5171;SDS011;2605;49.770;9.868;2022-07-23T06:31:40;13.60;;;12.50;;
5171;SDS011;2605;49.770;9.868;2022-07-23T06:34:06;12.73;;;11.67;;
5171;SDS011;2605;49.770;9.868;2022-07-23T06:36:31;13.20;;;11.90;;
5171;SDS011;2605;49.770;9.868;2022-07-23T06:38:57;11.93;;;10.80;;
5171;SDS011;2605;49.770;9.868;2022-07-23T06:41:22;11.30;;;10.30;;
5171;SDS011;2605;49.770;9.868;2022-07-23T06:43:48;13.03;;;11.73;;
5171;SDS011;2605;49.770;9.868;2022-07-23T06:46:14;12.43;;;11.40;;
5171;SDS011;2605;49.770;9.868;2022-07-23T06:48:40;12.00;;;10.73;;
5171;SDS011;2605;49.770;9.868;2022-07-23T06:51:05;13.83;;;12.63;;
5171;SDS011;2605;49.770;9.868;2022-07-23T06:53:31;14.17;;;12.93;;
5171;SDS011;2605;49.770;9.868;2022-07-23T06:55:56;15.20;;;13.70;;
5171;SDS011;2605;49.770;9.868;2022-07-23T06:58:22;16.33;;;14.93;;
5171;SDS011;2605;49.770;9.868;2022-07-23T07:00:47;17.03;;;15.47;;
5171;SDS011;2605;49.770;9.868;2022-07-23T07:03:13;17.40;;;16.00;;
5171;SDS011;2605;49.770;9.868;2022-07-23T07:05:38;18.10;;;16.40;;
5171;SDS011;2605;49.770;9.868;2022-07-23T07:08:07;19.07;;;17.23;;
5171;SDS011;2605;49.770;9.868;2022-07-23T07:10:32;16.93;;;15.43;;
5171;SDS011;2605;49.770;9.868;2022-07-23T07:12:58;15.23;;;13.83;;
5171;SDS011;2605;49.770;9.868;2022-07-23T07:15:23;17.90;;;15.77;;
5171;SDS011;2605;49.770;9.868;2022-07-23T07:17:49;15.77;;;14.27;;
5171;SDS011;2605;49.770;9.868;2022-07-23T07:20:15;14.43;;;13.20;;
5171;SDS011;2605;49.770;9.868;2022-07-23T07:22:40;16.97;;;15.57;;
5171;SDS011;2605;49.770;9.868;2022-07-23T07:25:06;14.07;;;12.80;;
5171;SDS011;2605;49.770;9.868;2022-07-23T07:27:32;15.90;;;14.30;;
5171;SDS011;2605;49.770;9.868;2022-07-23T07:29:57;14.27;;;13.03;;
5171;SDS011;2605;49.770;9.868;2022-07-23T07:32:23;14.17;;;12.70;;
5171;SDS011;2605;49.770;9.868;2022-07-23T07:34:49;13.50;;;12.30;;
5171;SDS011;2605;49.770;9.868;2022-07-23T07:37:14;15.50;;;14.00;;
5171;SDS011;2605;49.770;9.868;2022-07-23T07:39:40;13.90;;;12.70;;
5171;SDS011;2605;49.770;9.868;2022-07-23T07:42:05;12.17;;;10.90;;
5171;SDS011;2605;49.770;9.868;2022-07-23T07:44:31;12.70;;;11.60;;
5171;SDS011;2605;49.770;9.868;2022-07-23T07:46:56;12.77;;;11.37;;
5171;SDS011;2605;49.770;9.868;2022-07-23T07:49:22;13.50;;;12.40;;
5171;SDS011;2605;49.770;9.868;2022-07-23T07:51:48;12.07;;;10.97;;
5171;SDS011;2605;49.770;9.868;2022-07-23T07:54:14;11.20;;;10.20;;
5171;SDS011;2605;49.770;9.868;2022-07-23T07:56:40;10.80;;;9.90;;
5171;SDS011;2605;49.770;9.868;2022-07-23T07:59:05;11.23;;;10.23;;
5171;SDS011;2605;49.770;9.868;2022-07-23T08:01:31;12.47;;;10.37;;
5171;SDS011;2605;49.770;9.868;2022-07-23T08:03:57;11.70;;;10.60;;
5171;SDS011;2605;49.770;9.868;2022-07-23T08:06:22;12.67;;;11.43;;
5171;SDS011;2605;49.770;9.868;2022-07-23T08:08:48;12.10;;;11.00;;
5171;SDS011;2605;49.770;9.868;2022-07-23T08:11:13;12.77;;;11.70;;
5171;SDS011;2605;49.770;9.868;2022-07-23T08:13:39;12.47;;;11.33;;
5171;SDS011;2605;49.770;9.868;2022-07-23T08:16:04;9.83;;;8.93;;
5171;SDS011;2605;49.770;9.868;2022-07-23T08:18:30;11.50;;;9.97;;
5171;SDS011;2605;49.770;9.868;2022-07-23T08:20:55;10.13;;;8.87;;
5171;SDS011;2605;49.770;9.868;2022-07-23T08:23:21;11.00;;;10.00;;
5171;SDS011;2605;49.770;9.868;2022-07-23T08:25:46;10.73;;;9.83;;
5171;SDS011;2605;49.770;9.868;2022-07-23T08:28:13;10.70;;;9.90;;
5171;SDS011;2605;49.770;9.868;2022-07-23T08:30:40;10.87;;;9.50;;
5171;SDS011;2605;49.770;9.868;2022-07-23T08:33:08;9.63;;;8.60;;
5171;SDS011;2605;49.770;9.868;2022-07-23T08:35:45;10.93;;;9.83;;
5171;SDS011;2605;49.770;9.868;2022-07-23T08:38:13;11.37;;;10.53;;
5171;SDS011;2605;49.770;9.868;2022-07-23T08:40:43;10.53;;;9.63;;
5171;SDS011;2605;49.770;9.868;2022-07-23T08:43:12;12.03;;;11.03;;
5171;SDS011;2605;49.770;9.868;2022-07-23T08:45:40;10.53;;;9.73;;
5171;SDS011;2605;49.770;9.868;2022-07-23T08:48:08;9.73;;;8.73;;
5171;SDS011;2605;49.770;9.868;2022-07-23T08:50:36;10.00;;;9.30;;
5171;SDS011;2605;49.770;9.868;2022-07-23T08:53:05;10.63;;;9.73;;
5171;SDS011;2605;49.770;9.868;2022-07-23T08:55:31;12.10;;;11.00;;
5171;SDS011;2605;49.770;9.868;2022-07-23T08:57:57;10.73;;;9.70;;
5171;SDS011;2605;49.770;9.868;2022-07-23T09:00:22;10.77;;;9.87;;
5171;SDS011;2605;49.770;9.868;2022-07-23T09:02:48;10.60;;;9.60;;
5171;SDS011;2605;49.770;9.868;2022-07-23T09:05:15;10.53;;;9.63;;
5171;SDS011;2605;49.770;9.868;2022-07-23T09:10:42;9.80;;;9.10;;
5171;SDS011;2605;49.770;9.868;2022-07-23T09:15:57;10.33;;;9.33;;
5171;SDS011;2605;49.770;9.868;2022-07-23T09:18:39;10.80;;;9.70;;
5171;SDS011;2605;49.770;9.868;2022-07-23T09:21:11;11.67;;;10.40;;
5171;SDS011;2605;49.770;9.868;2022-07-23T09:23:47;11.13;;;10.23;;
5171;SDS011;2605;49.770;9.868;2022-07-23T09:29:00;10.90;;;10.00;;
5171;SDS011;2605;49.770;9.868;2022-07-23T09:34:21;10.43;;;9.50;;
5171;SDS011;2605;49.770;9.868;2022-07-23T09:36:47;11.80;;;10.57;;
5171;SDS011;2605;49.770;9.868;2022-07-23T09:39:14;10.30;;;9.53;;
5171;SDS011;2605;49.770;9.868;2022-07-23T09:41:44;9.70;;;8.80;;
5171;SDS011;2605;49.770;9.868;2022-07-23T09:44:12;11.60;;;10.43;;
5171;SDS011;2605;49.770;9.868;2022-07-23T09:46:44;9.90;;;9.10;;
5171;SDS011;2605;49.770;9.868;2022-07-23T09:49:29;11.97;;;11.00;;
5171;SDS011;2605;49.770;9.868;2022-07-23T09:51:55;11.03;;;9.93;;
5171;SDS011;2605;49.770;9.868;2022-07-23T09:54:27;10.83;;;9.83;;
5171;SDS011;2605;49.770;9.868;2022-07-23T09:56:59;10.93;;;10.03;;
5171;SDS011;2605;49.770;9.868;2022-07-23T09:59:29;12.30;;;11.30;;
5171;SDS011;2605;49.770;9.868;2022-07-23T10:01:57;11.83;;;10.70;;
5171;SDS011;2605;49.770;9.868;2022-07-23T10:04:24;11.20;;;10.13;;
5171;SDS011;2605;49.770;9.868;2022-07-23T10:06:52;11.00;;;9.90;;
5171;SDS011;2605;49.770;9.868;2022-07-23T10:09:39;10.80;;;9.70;;
5171;SDS011;2605;49.770;9.868;2022-07-23T10:12:10;9.20;;;8.30;;
5171;SDS011;2605;49.770;9.868;2022-07-23T10:14:57;9.70;;;8.87;;
5171;SDS011;2605;49.770;9.868;2022-07-23T10:17:23;10.00;;;9.03;;
5171;SDS011;2605;49.770;9.868;2022-07-23T10:19:49;9.70;;;9.00;;
5171;SDS011;2605;49.770;9.868;2022-07-23T10:22:18;9.83;;;9.00;;
5171;SDS011;2605;49.770;9.868;2022-07-23T10:27:43;8.63;;;8.03;;
5171;SDS011;2605;49.770;9.868;2022-07-23T10:35:56;9.57;;;8.90;;
5171;SDS011;2605;49.770;9.868;2022-07-23T10:38:41;8.17;;;7.47;;
5171;SDS011;2605;49.770;9.868;2022-07-23T10:41:09;7.83;;;7.23;;
5171;SDS011;2605;49.770;9.868;2022-07-23T10:43:34;9.57;;;8.87;;
5171;SDS011;2605;49.770;9.868;2022-07-23T10:46:20;8.83;;;8.13;;
5171;SDS011;2605;49.770;9.868;2022-07-23T10:54:38;8.70;;;8.00;;
5171;SDS011;2605;49.770;9.868;2022-07-23T10:57:04;8.27;;;7.60;;
5171;SDS011;2605;49.770;9.868;2022-07-23T10:59:32;8.53;;;7.83;;
5171;SDS011;2605;49.770;9.868;2022-07-23T11:02:36;9.53;;;8.83;;
5171;SDS011;2605;49.770;9.868;2022-07-23T11:05:07;9.37;;;8.53;;
5171;SDS011;2605;49.770;9.868;2022-07-23T11:07:36;9.73;;;9.00;;
5171;SDS011;2605;49.770;9.868;2022-07-23T11:10:34;8.87;;;8.20;;
5171;SDS011;2605;49.770;9.868;2022-07-23T11:24:03;9.50;;;8.80;;
5171;SDS011;2605;49.770;9.868;2022-07-23T11:31:56;9.80;;;9.00;;
5171;SDS011;2605;49.770;9.868;2022-07-23T11:34:35;9.70;;;8.97;;
5171;SDS011;2605;49.770;9.868;2022-07-23T11:37:09;11.17;;;10.27;;
5171;SDS011;2605;49.770;9.868;2022-07-23T11:39:37;11.10;;;10.30;;
5171;SDS011;2605;49.770;9.868;2022-07-23T11:42:04;10.20;;;9.30;;
5171;SDS011;2605;49.770;9.868;2022-07-23T11:44:31;10.60;;;9.67;;
5171;SDS011;2605;49.770;9.868;2022-07-23T11:49:28;8.87;;;8.27;;
5171;SDS011;2605;49.770;9.868;2022-07-23T11:52:04;9.60;;;8.90;;
5171;SDS011;2605;49.770;9.868;2022-07-23T11:57:45;9.43;;;8.80;;
5171;SDS011;2605;49.770;9.868;2022-07-23T12:00:17;8.70;;;8.10;;
5171;SDS011;2605;49.770;9.868;2022-07-23T12:02:47;8.10;;;7.50;;
5171;SDS011;2605;49.770;9.868;2022-07-23T12:05:18;8.63;;;8.03;;
5171;SDS011;2605;49.770;9.868;2022-07-23T12:07:46;9.73;;;9.03;;
5171;SDS011;2605;49.770;9.868;2022-07-23T12:10:17;8.33;;;7.73;;
5171;SDS011;2605;49.770;9.868;2022-07-23T12:12:44;10.30;;;9.53;;
5171;SDS011;2605;49.770;9.868;2022-07-23T12:15:15;9.20;;;8.60;;
5171;SDS011;2605;49.770;9.868;2022-07-23T12:17:45;10.23;;;9.43;;
5171;SDS011;2605;49.770;9.868;2022-07-23T12:20:13;10.10;;;9.43;;
5171;SDS011;2605;49.770;9.868;2022-07-23T12:22:43;10.07;;;9.20;;
5171;SDS011;2605;49.770;9.868;2022-07-23T12:25:12;8.93;;;8.33;;
5171;SDS011;2605;49.770;9.868;2022-07-23T12:27:58;9.47;;;8.47;;
5171;SDS011;2605;49.770;9.868;2022-07-23T12:30:46;9.40;;;8.47;;
5171;SDS011;2605;49.770;9.868;2022-07-23T12:33:14;8.47;;;7.73;;
5171;SDS011;2605;49.770;9.868;2022-07-23T12:35:53;9.03;;;8.40;;
5171;SDS011;2605;49.770;9.868;2022-07-23T12:38:21;9.23;;;8.53;;
5171;SDS011;2605;49.770;9.868;2022-07-23T12:40:49;9.43;;;8.73;;
5171;SDS011;2605;49.770;9.868;2022-07-23T12:43:29;8.90;;;8.10;;
5171;SDS011;2605;49.770;9.868;2022-07-23T12:46:06;9.10;;;8.40;;
5171;SDS011;2605;49.770;9.868;2022-07-23T12:51:19;9.20;;;8.60;;
5171;SDS011;2605;49.770;9.868;2022-07-23T12:54:07;8.70;;;8.07;;
5171;SDS011;2605;49.770;9.868;2022-07-23T13:01:28;8.53;;;7.73;;
5171;SDS011;2605;49.770;9.868;2022-07-23T13:07:02;8.83;;;8.23;;
5171;SDS011;2605;49.770;9.868;2022-07-23T13:09:28;8.20;;;7.43;;
5171;SDS011;2605;49.770;9.868;2022-07-23T13:11:55;9.30;;;8.50;;
5171;SDS011;2605;49.770;9.868;2022-07-23T13:14:22;9.30;;;8.70;;
5171;SDS011;2605;49.770;9.868;2022-07-23T13:16:49;10.50;;;7.93;;
5171;SDS011;2605;49.770;9.868;2022-07-23T13:19:16;8.90;;;8.30;;
5171;SDS011;2605;49.770;9.868;2022-07-23T13:21:42;8.43;;;7.60;;
5171;SDS011;2605;49.770;9.868;2022-07-23T13:24:08;9.30;;;8.50;;
5171;SDS011;2605;49.770;9.868;2022-07-23T13:26:34;8.90;;;8.30;;
5171;SDS011;2605;49.770;9.868;2022-07-23T13:29:00;9.60;;;8.67;;
5171;SDS011;2605;49.770;9.868;2022-07-23T13:31:26;9.50;;;8.80;;
5171;SDS011;2605;49.770;9.868;2022-07-23T13:33:52;8.13;;;7.53;;
5171;SDS011;2605;49.770;9.868;2022-07-23T13:36:17;8.67;;;7.97;;
5171;SDS011;2605;49.770;9.868;2022-07-23T13:38:43;9.50;;;8.67;;
5171;SDS011;2605;49.770;9.868;2022-07-23T13:41:08;7.87;;;7.27;;
5171;SDS011;2605;49.770;9.868;2022-07-23T13:43:34;7.77;;;7.03;;
5171;SDS011;2605;49.770;9.868;2022-07-23T13:46:00;9.43;;;8.73;;
5171;SDS011;2605;49.770;9.868;2022-07-23T13:48:25;8.30;;;7.60;;
5171;SDS011;2605;49.770;9.868;2022-07-23T13:50:51;9.37;;;8.77;;
5171;SDS011;2605;49.770;9.868;2022-07-23T13:53:18;9.23;;;8.43;;
5171;SDS011;2605;49.770;9.868;2022-07-23T13:55:45;8.70;;;7.63;;
5171;SDS011;2605;49.770;9.868;2022-07-23T13:58:12;8.70;;;8.03;;
5171;SDS011;2605;49.770;9.868;2022-07-23T14:00:41;8.50;;;7.87;;
5171;SDS011;2605;49.770;9.868;2022-07-23T14:03:08;7.70;;;6.93;;
5171;SDS011;2605;49.770;9.868;2022-07-23T14:05:34;7.97;;;7.37;;
5171;SDS011;2605;49.770;9.868;2022-07-23T14:07:59;8.27;;;7.50;;
5171;SDS011;2605;49.770;9.868;2022-07-23T14:10:25;6.77;;;6.20;;
5171;SDS011;2605;49.770;9.868;2022-07-23T14:12:51;8.07;;;7.47;;
5171;SDS011;2605;49.770;9.868;2022-07-23T14:15:18;7.73;;;7.13;;
5171;SDS011;2605;49.770;9.868;2022-07-23T14:17:44;8.27;;;7.30;;
5171;SDS011;2605;49.770;9.868;2022-07-23T14:20:11;8.17;;;7.47;;
5171;SDS011;2605;49.770;9.868;2022-07-23T14:22:38;9.20;;;7.60;;
5171;SDS011;2605;49.770;9.868;2022-07-23T14:25:04;8.40;;;7.80;;
5171;SDS011;2605;49.770;9.868;2022-07-23T14:27:31;7.63;;;7.03;;
5171;SDS011;2605;49.770;9.868;2022-07-23T14:29:57;7.90;;;7.30;;
5171;SDS011;2605;49.770;9.868;2022-07-23T14:32:23;8.33;;;7.73;;
5171;SDS011;2605;49.770;9.868;2022-07-23T14:34:49;8.60;;;7.90;;
5171;SDS011;2605;49.770;9.868;2022-07-23T14:37:15;6.80;;;6.30;;
5171;SDS011;2605;49.770;9.868;2022-07-23T14:39:41;8.60;;;8.00;;
5171;SDS011;2605;49.770;9.868;2022-07-23T14:42:07;9.30;;;8.70;;
5171;SDS011;2605;49.770;9.868;2022-07-23T14:44:34;8.47;;;7.97;;
5171;SDS011;2605;49.770;9.868;2022-07-23T14:47:01;8.13;;;7.63;;
5171;SDS011;2605;49.770;9.868;2022-07-23T14:49:29;7.73;;;7.33;;
5171;SDS011;2605;49.770;9.868;2022-07-23T14:51:55;7.97;;;7.47;;
5171;SDS011;2605;49.770;9.868;2022-07-23T14:54:21;7.30;;;6.90;;
5171;SDS011;2605;49.770;9.868;2022-07-23T14:56:46;7.63;;;7.13;;
5171;SDS011;2605;49.770;9.868;2022-07-23T14:59:12;7.20;;;6.70;;
5171;SDS011;2605;49.770;9.868;2022-07-23T15:01:38;7.70;;;7.10;;
5171;SDS011;2605;49.770;9.868;2022-07-23T15:04:04;8.37;;;7.90;;
5171;SDS011;2605;49.770;9.868;2022-07-23T15:06:31;7.77;;;7.37;;
5171;SDS011;2605;49.770;9.868;2022-07-23T15:08:57;7.60;;;7.10;;
5171;SDS011;2605;49.770;9.868;2022-07-23T15:11:23;7.83;;;7.23;;
5171;SDS011;2605;49.770;9.868;2022-07-23T15:13:48;7.03;;;6.53;;
5171;SDS011;2605;49.770;9.868;2022-07-23T15:16:14;8.53;;;7.83;;
5171;SDS011;2605;49.770;9.868;2022-07-23T15:18:39;7.27;;;6.70;;
5171;SDS011;2605;49.770;9.868;2022-07-23T15:21:05;8.20;;;7.70;;
5171;SDS011;2605;49.770;9.868;2022-07-23T15:23:31;7.10;;;6.70;;
5171;SDS011;2605;49.770;9.868;2022-07-23T15:25:57;7.60;;;7.20;;
5171;SDS011;2605;49.770;9.868;2022-07-23T15:28:22;8.13;;;7.53;;
5171;SDS011;2605;49.770;9.868;2022-07-23T15:30:49;7.53;;;7.13;;
5171;SDS011;2605;49.770;9.868;2022-07-23T15:33:16;7.40;;;6.90;;
5171;SDS011;2605;49.770;9.868;2022-07-23T15:35:41;7.10;;;6.70;;
5171;SDS011;2605;49.770;9.868;2022-07-23T15:38:07;6.50;;;6.10;;
5171;SDS011;2605;49.770;9.868;2022-07-23T15:40:32;7.40;;;7.00;;
5171;SDS011;2605;49.770;9.868;2022-07-23T15:42:58;7.10;;;6.70;;
5171;SDS011;2605;49.770;9.868;2022-07-23T15:45:23;7.67;;;7.27;;
5171;SDS011;2605;49.770;9.868;2022-07-23T15:47:49;8.40;;;7.60;;
5171;SDS011;2605;49.770;9.868;2022-07-23T15:50:15;6.83;;;6.43;;
5171;SDS011;2605;49.770;9.868;2022-07-23T15:52:41;7.00;;;6.50;;
5171;SDS011;2605;49.770;9.868;2022-07-23T15:55:07;7.53;;;7.13;;
5171;SDS011;2605;49.770;9.868;2022-07-23T15:57:34;6.33;;;6.03;;
5171;SDS011;2605;49.770;9.868;2022-07-23T15:59:59;7.17;;;6.50;;
5171;SDS011;2605;49.770;9.868;2022-07-23T16:02:25;7.43;;;6.83;;